createdAt,value
2022-12-25T00:02:32.815Z,3.58
2022-12-25T00:05:39.033Z,3.78
2022-12-25T00:08:42.681Z,3.50
2022-12-25T00:11:45.913Z,3.67
2022-12-25T00:14:49.625Z,3.80
2022-12-25T00:17:52.901Z,3.58
2022-12-25T00:20:59.513Z,4.20
2022-12-25T00:24:03.648Z,3.85
2022-12-25T00:27:06.911Z,3.40
2022-12-25T00:30:10.863Z,3.17
2022-12-25T00:33:14.641Z,3.13
2022-12-25T00:36:19.859Z,2.80
2022-12-25T00:39:23.209Z,2.55
2022-12-25T00:42:28.486Z,3.20
2022-12-25T00:45:31.969Z,3.17
2022-12-25T00:48:36.362Z,2.80
2022-12-25T00:51:39.736Z,2.92
2022-12-25T00:54:42.957Z,2.70
2022-12-25T00:57:46.207Z,2.70
2022-12-25T01:00:50.014Z,2.75
2022-12-25T01:03:53.301Z,2.60
2022-12-25T01:06:56.434Z,2.88
2022-12-25T01:10:18.566Z,2.60
2022-12-25T01:13:22.187Z,2.63
2022-12-25T01:16:25.741Z,2.63
2022-12-25T01:19:29.018Z,2.38
2022-12-25T01:22:32.208Z,2.70
2022-12-25T01:25:35.403Z,2.10
2022-12-25T01:28:39.264Z,2.23
2022-12-25T01:31:42.822Z,2.53
2022-12-25T01:34:55.473Z,2.65
2022-12-25T01:37:59.242Z,2.53
2022-12-25T01:41:02.500Z,2.30
2022-12-25T01:44:15.726Z,2.53
2022-12-25T01:47:19.624Z,2.15
2022-12-25T01:50:23.675Z,2.33
2022-12-25T01:53:27.474Z,2.38
2022-12-25T01:56:31.658Z,2.30
2022-12-25T01:59:35.213Z,2.40
2022-12-25T02:02:40.128Z,2.90
2022-12-25T02:05:44.618Z,2.80
2022-12-25T02:08:47.916Z,2.55
2022-12-25T02:11:57.166Z,2.57
2022-12-25T02:15:06.067Z,2.30
2022-12-25T02:18:17.768Z,2.63
2022-12-25T02:21:48.546Z,2.42
2022-12-25T02:24:57.909Z,2.95
2022-12-25T02:28:09.942Z,2.57
2022-12-25T02:31:22.441Z,2.42
2022-12-25T02:34:48.376Z,2.33
2022-12-25T02:38:05.132Z,2.83
2022-12-25T02:41:15.457Z,2.58
2022-12-25T02:44:41.653Z,3.10
2022-12-25T02:48:03.414Z,2.95
2022-12-25T02:51:28.883Z,3.00
2022-12-25T02:54:55.757Z,2.78
2022-12-25T02:58:21.403Z,3.30
2022-12-25T03:01:48.258Z,3.30
2022-12-25T03:05:12.572Z,3.35
2022-12-25T03:08:21.751Z,3.35
2022-12-25T03:11:31.113Z,3.58
2022-12-25T03:14:52.974Z,3.33
2022-12-25T03:18:00.458Z,2.97
2022-12-25T03:21:22.442Z,3.10
2022-12-25T03:24:44.285Z,3.45
2022-12-25T03:27:51.666Z,2.58
2022-12-25T03:31:13.225Z,3.20
2022-12-25T03:34:46.300Z,2.90
2022-12-25T03:38:16.896Z,3.10
2022-12-25T03:42:09.009Z,2.88
2022-12-25T03:45:34.776Z,2.85
2022-12-25T03:49:02.225Z,2.90
2022-12-25T03:52:26.570Z,2.95
2022-12-25T03:55:59.450Z,2.88
2022-12-25T03:59:23.839Z,2.90
2022-12-25T04:02:46.302Z,2.73
2022-12-25T04:06:08.173Z,2.92
2022-12-25T04:09:30.445Z,3.00
2022-12-25T04:12:52.281Z,2.95
2022-12-25T04:16:14.838Z,2.70
2022-12-25T04:19:36.949Z,2.60
2022-12-25T04:22:59.015Z,2.50
2022-12-25T04:26:20.647Z,2.80
2022-12-25T04:29:42.576Z,2.88
2022-12-25T04:33:04.627Z,2.70
2022-12-25T04:36:13.907Z,2.70
2022-12-25T04:39:17.341Z,2.63
2022-12-25T04:42:20.582Z,2.85
2022-12-25T04:45:23.755Z,2.90
2022-12-25T04:48:28.014Z,2.78
2022-12-25T04:51:31.279Z,3.20
2022-12-25T04:54:34.461Z,3.30
2022-12-25T04:57:38.253Z,2.85
2022-12-25T05:00:41.604Z,3.00
2022-12-25T05:03:44.892Z,2.90
2022-12-25T05:06:48.164Z,3.75
2022-12-25T05:09:51.347Z,3.58
2022-12-25T05:12:54.488Z,2.97
2022-12-25T05:15:57.706Z,2.70
2022-12-25T05:19:01.249Z,3.25
2022-12-25T05:22:04.449Z,3.22
2022-12-25T05:25:08.092Z,3.55
2022-12-25T05:28:11.367Z,3.10
2022-12-25T05:31:14.878Z,3.45
2022-12-25T05:34:18.134Z,2.90
2022-12-25T05:37:21.365Z,3.05
2022-12-25T05:40:24.679Z,3.03
2022-12-25T05:43:28.478Z,3.10
2022-12-25T05:46:31.778Z,2.90
2022-12-25T05:49:35.144Z,3.00
2022-12-25T05:52:38.320Z,2.85
2022-12-25T05:55:46.338Z,3.00
2022-12-25T05:58:49.798Z,2.95
2022-12-25T06:01:53.064Z,3.30
2022-12-25T06:04:56.284Z,3.65
2022-12-25T06:07:59.443Z,3.25
2022-12-25T06:11:07.541Z,3.53
2022-12-25T06:14:15.208Z,3.72
2022-12-25T06:17:18.399Z,3.72
2022-12-25T06:20:21.691Z,2.85
2022-12-25T06:23:25.031Z,3.38
2022-12-25T06:26:28.673Z,4.03
2022-12-25T06:29:31.963Z,3.95
2022-12-25T06:32:35.188Z,4.13
2022-12-25T06:35:40.318Z,3.90
2022-12-25T06:38:44.505Z,4.47
2022-12-25T06:41:48.862Z,4.43
2022-12-25T06:44:53.320Z,4.90
2022-12-25T06:47:56.519Z,4.82
2022-12-25T06:51:00.525Z,5.10
2022-12-25T06:54:04.084Z,5.07
2022-12-25T06:57:07.450Z,5.35
2022-12-25T07:00:11.305Z,5.20
2022-12-25T07:03:20.283Z,4.90
2022-12-25T07:06:23.611Z,5.78
2022-12-25T07:09:26.959Z,5.13
2022-12-25T07:12:30.226Z,3.95
2022-12-25T07:15:38.148Z,4.22
2022-12-25T07:18:42.143Z,3.63
2022-12-25T07:21:46.262Z,3.92
2022-12-25T07:24:50.801Z,3.83
2022-12-25T07:27:53.979Z,3.28
2022-12-25T07:31:05.663Z,4.03
2022-12-25T07:34:33.666Z,4.60
2022-12-25T07:37:37.710Z,4.70
2022-12-25T07:40:46.608Z,4.60
2022-12-25T07:43:51.761Z,4.75
2022-12-25T07:46:54.925Z,4.70
2022-12-25T07:49:58.969Z,5.78
2022-12-25T07:53:02.273Z,5.30
2022-12-25T07:56:12.693Z,5.70
2022-12-25T07:59:15.884Z,6.15
2022-12-25T08:02:19.491Z,6.40
2022-12-25T08:05:22.827Z,6.72
2022-12-25T08:08:26.270Z,7.15
2022-12-25T08:11:29.611Z,6.13
2022-12-25T08:14:32.843Z,6.43
2022-12-25T08:17:36.328Z,5.93
2022-12-25T08:20:39.500Z,6.53
2022-12-25T08:23:48.692Z,5.85
2022-12-25T08:26:51.902Z,6.30
2022-12-25T08:29:55.197Z,4.88
2022-12-25T08:32:58.465Z,6.28
2022-12-25T08:36:07.454Z,6.43
2022-12-25T08:39:14.552Z,5.93
2022-12-25T08:42:17.776Z,6.70
2022-12-25T08:45:20.993Z,6.00
2022-12-25T08:48:24.457Z,6.72
2022-12-25T08:51:27.810Z,6.97
2022-12-25T08:54:33.800Z,6.78
2022-12-25T08:57:36.905Z,7.20
2022-12-25T09:00:40.937Z,7.20
2022-12-25T09:03:44.287Z,7.53
2022-12-25T09:06:47.520Z,7.32
2022-12-25T09:09:50.747Z,7.13
2022-12-25T09:12:54.218Z,6.70
2022-12-25T09:15:57.406Z,8.05
2022-12-25T09:19:00.716Z,7.93
2022-12-25T09:22:04.414Z,7.35
2022-12-25T09:25:07.909Z,6.55
2022-12-25T09:28:11.139Z,6.00
2022-12-25T09:31:14.413Z,6.03
2022-12-25T09:34:19.197Z,6.82
2022-12-25T09:37:22.487Z,6.07
2022-12-25T09:40:29.926Z,6.40
2022-12-25T09:43:39.349Z,6.87
2022-12-25T09:46:53.463Z,7.22
2022-12-25T09:50:21.626Z,6.45
2022-12-25T09:53:35.666Z,6.88
2022-12-25T09:56:38.887Z,6.88
2022-12-25T09:59:47.462Z,5.50
2022-12-25T10:03:02.769Z,6.53
2022-12-25T10:06:15.990Z,5.68
2022-12-25T10:09:21.896Z,6.95
2022-12-25T10:12:35.162Z,7.10
2022-12-25T10:16:11.783Z,7.10
2022-12-25T10:19:34.233Z,6.75
2022-12-25T10:22:47.811Z,7.13
2022-12-25T10:25:53.744Z,7.07
2022-12-25T10:29:03.945Z,7.22
2022-12-25T10:32:09.060Z,7.30
2022-12-25T10:35:19.029Z,6.20
2022-12-25T10:38:22.654Z,6.82
2022-12-25T10:41:59.715Z,6.10
2022-12-25T10:45:06.461Z,5.82
2022-12-25T10:48:19.588Z,5.97
2022-12-25T10:51:37.319Z,5.57
2022-12-25T10:54:40.755Z,4.95
2022-12-25T10:57:47.393Z,5.32
2022-12-25T11:00:58.962Z,5.10
2022-12-25T11:04:02.445Z,5.73
2022-12-25T11:07:13.730Z,3.77
2022-12-25T11:10:19.847Z,4.82
2022-12-25T11:13:27.086Z,4.88
2022-12-25T11:16:40.331Z,4.90
2022-12-25T11:19:59.719Z,4.50
2022-12-25T11:23:09.433Z,4.77
2022-12-25T11:26:13.430Z,5.13
2022-12-25T11:29:27.680Z,4.95
2022-12-25T11:32:46.416Z,5.40
2022-12-25T11:35:54.889Z,4.70
2022-12-25T11:39:08.743Z,5.27
2022-12-25T11:42:21.075Z,5.90
2022-12-25T11:45:35.890Z,5.38
2022-12-25T11:48:45.536Z,5.78
2022-12-25T11:51:53.720Z,7.63
2022-12-25T11:55:10.162Z,8.80
2022-12-25T11:58:37.661Z,8.75
2022-12-25T12:02:14.718Z,8.15
2022-12-25T12:05:32.194Z,8.00
2022-12-25T12:08:36.450Z,8.60
2022-12-25T12:11:46.710Z,8.10
2022-12-25T12:15:14.242Z,8.43
2022-12-25T12:18:28.902Z,8.73
2022-12-25T12:21:32.087Z,8.38
2022-12-25T12:24:43.760Z,8.37
2022-12-25T12:27:52.299Z,7.87
2022-12-25T12:31:04.425Z,8.60
2022-12-25T12:34:16.173Z,7.65
2022-12-25T12:37:29.329Z,7.63
2022-12-25T12:40:33.317Z,6.80
2022-12-25T12:43:43.375Z,5.90
2022-12-25T12:46:57.454Z,5.30
2022-12-25T12:50:01.925Z,5.00
2022-12-25T12:53:22.088Z,4.78
2022-12-25T12:56:25.891Z,4.50
2022-12-25T12:59:40.723Z,4.03
2022-12-25T13:03:07.705Z,4.20
2022-12-25T13:06:20.921Z,4.10
2022-12-25T13:09:27.218Z,3.75
2022-12-25T13:12:30.506Z,3.90
2022-12-25T13:15:35.940Z,4.00
2022-12-25T13:18:40.221Z,3.42
2022-12-25T13:21:54.188Z,3.20
2022-12-25T13:25:07.804Z,2.75
2022-12-25T13:28:14.778Z,3.20
2022-12-25T13:31:26.173Z,2.77
2022-12-25T13:34:36.326Z,3.38
2022-12-25T13:37:39.714Z,3.17
2022-12-25T13:41:11.793Z,3.55
2022-12-25T13:44:27.671Z,4.30
2022-12-25T13:47:34.594Z,4.47
2022-12-25T13:50:37.998Z,5.07
2022-12-25T13:53:41.231Z,6.10
2022-12-25T13:56:55.661Z,6.28
2022-12-25T13:59:59.388Z,7.50
2022-12-25T14:03:09.664Z,6.70
2022-12-25T14:06:30.390Z,8.88
2022-12-25T14:09:33.860Z,8.02
2022-12-25T14:12:37.209Z,7.95
2022-12-25T14:15:41.824Z,7.97
2022-12-25T14:18:53.567Z,7.93
2022-12-25T14:22:05.503Z,7.53
2022-12-25T14:25:15.715Z,7.13
2022-12-25T14:28:23.581Z,7.47
2022-12-25T14:31:29.537Z,7.40
2022-12-25T14:34:33.520Z,7.10
2022-12-25T14:37:38.331Z,7.20
2022-12-25T14:40:45.364Z,7.47
2022-12-25T14:43:55.492Z,7.50
2022-12-25T14:47:12.525Z,8.27
2022-12-25T14:50:32.998Z,7.90
2022-12-25T14:53:49.302Z,7.35
2022-12-25T14:56:54.732Z,7.78
2022-12-25T15:00:01.320Z,7.72
2022-12-25T15:03:08.399Z,7.43
2022-12-25T15:06:21.804Z,7.93
2022-12-25T15:09:26.435Z,7.45
2022-12-25T15:12:29.805Z,7.95
2022-12-25T15:15:34.395Z,7.32
2022-12-25T15:18:43.621Z,7.43
2022-12-25T15:21:47.086Z,7.57
2022-12-25T15:24:51.196Z,8.60
2022-12-25T15:27:56.317Z,8.25
2022-12-25T15:30:59.667Z,8.23
2022-12-25T15:34:06.014Z,9.10
2022-12-25T15:37:09.195Z,9.38
2022-12-25T15:40:14.604Z,9.48
2022-12-25T15:43:40.013Z,10.30
2022-12-25T15:46:42.060Z,11.75
2022-12-25T15:49:45.842Z,11.77
2022-12-25T15:52:49.633Z,12.35
2022-12-25T15:55:53.423Z,11.77
2022-12-25T15:58:57.180Z,11.13
2022-12-25T16:02:02.110Z,12.05
2022-12-25T16:05:10.288Z,12.20
2022-12-25T16:08:13.715Z,12.43
2022-12-25T16:11:16.963Z,13.60
2022-12-25T16:14:20.251Z,13.45
2022-12-25T16:17:23.468Z,14.10
2022-12-25T16:20:26.701Z,16.13
2022-12-25T16:23:31.490Z,17.63
2022-12-25T16:26:35.095Z,17.48
2022-12-25T16:29:38.343Z,17.63
2022-12-25T16:32:45.402Z,17.00
2022-12-25T16:35:49.665Z,17.10
2022-12-25T16:38:52.865Z,16.45
2022-12-25T16:41:56.238Z,16.27
2022-12-25T16:44:59.416Z,17.60
2022-12-25T16:48:02.593Z,16.75
2022-12-25T16:51:13.003Z,14.83
2022-12-25T16:54:16.237Z,15.30
2022-12-25T16:57:19.436Z,14.15
2022-12-25T17:00:22.995Z,13.80
2022-12-25T17:03:26.235Z,14.10
2022-12-25T17:06:29.954Z,14.43
2022-12-25T17:09:35.376Z,14.38
2022-12-25T17:12:40.957Z,14.02
2022-12-25T17:15:50.249Z,14.48
2022-12-25T17:18:58.640Z,13.55
2022-12-25T17:22:01.953Z,13.90
2022-12-25T17:25:05.413Z,14.48
2022-12-25T17:28:08.774Z,15.23
2022-12-25T17:31:13.581Z,12.45
2022-12-25T17:34:16.946Z,11.98
2022-12-25T17:37:20.346Z,12.00
2022-12-25T17:40:24.042Z,12.38
2022-12-25T17:43:27.328Z,12.80
2022-12-25T17:46:33.190Z,14.10
2022-12-25T17:49:36.597Z,13.77
2022-12-25T17:52:39.771Z,13.17
2022-12-25T17:55:43.513Z,12.70
2022-12-25T17:58:51.748Z,11.82
2022-12-25T18:01:55.432Z,11.82
2022-12-25T18:04:58.866Z,12.15
2022-12-25T18:08:02.037Z,11.60
2022-12-25T18:11:08.653Z,11.77
2022-12-25T18:14:18.705Z,11.20
2022-12-25T18:17:22.026Z,12.73
2022-12-25T18:20:25.275Z,11.33
2022-12-25T18:23:30.930Z,12.50
2022-12-25T18:26:34.558Z,14.68
2022-12-25T18:29:37.774Z,15.88
2022-12-25T18:32:41.271Z,15.30
2022-12-25T18:35:46.709Z,14.53
2022-12-25T18:38:51.757Z,15.23
2022-12-25T18:42:13.714Z,15.40
2022-12-25T18:45:18.192Z,15.32
2022-12-25T18:48:21.625Z,15.87
2022-12-25T18:51:27.709Z,14.95
2022-12-25T18:54:34.682Z,16.42
2022-12-25T18:57:39.801Z,15.52
2022-12-25T19:00:43.177Z,15.40
2022-12-25T19:03:49.047Z,15.07
2022-12-25T19:06:53.236Z,15.88
2022-12-25T19:09:57.741Z,15.52
2022-12-25T19:13:00.993Z,15.63
2022-12-25T19:16:04.968Z,15.27
2022-12-25T19:19:08.311Z,15.47
2022-12-25T19:22:11.759Z,15.32
2022-12-25T19:25:15.064Z,15.57
2022-12-25T19:28:18.308Z,15.88
2022-12-25T19:31:22.443Z,15.43
2022-12-25T19:34:26.083Z,16.55
2022-12-25T19:37:29.232Z,16.05
2022-12-25T19:40:35.922Z,16.20
2022-12-25T19:43:41.492Z,17.20
2022-12-25T19:46:44.712Z,17.53
2022-12-25T19:49:52.825Z,18.55
2022-12-25T19:52:56.629Z,17.55
2022-12-25T19:56:03.369Z,18.67
2022-12-25T19:59:06.543Z,19.35
2022-12-25T20:02:10.804Z,19.03
2022-12-25T20:05:14.076Z,18.75
2022-12-25T20:08:17.528Z,19.55
2022-12-25T20:11:25.012Z,19.85
2022-12-25T20:14:28.184Z,20.10
2022-12-25T20:17:31.484Z,18.77
2022-12-25T20:20:35.661Z,19.10
2022-12-25T20:23:38.935Z,19.83
2022-12-25T20:26:45.366Z,19.40
2022-12-25T20:29:51.606Z,19.73
2022-12-25T20:32:55.402Z,19.90
2022-12-25T20:36:01.223Z,20.55
2022-12-25T20:39:09.852Z,20.33
2022-12-25T20:42:13.752Z,20.73
2022-12-25T20:45:17.308Z,20.90
2022-12-25T20:48:20.655Z,20.20
2022-12-25T20:51:25.839Z,19.33
2022-12-25T20:54:29.181Z,19.38
2022-12-25T20:57:32.673Z,19.30
2022-12-25T21:00:40.215Z,19.23
2022-12-25T21:03:44.419Z,18.73
2022-12-25T21:06:47.740Z,18.17
2022-12-25T21:09:51.012Z,18.15
2022-12-25T21:12:54.242Z,17.85
2022-12-25T21:15:58.069Z,16.20
2022-12-25T21:19:01.435Z,15.90
2022-12-25T21:22:04.671Z,14.10
2022-12-25T21:25:08.170Z,14.32
2022-12-25T21:28:11.447Z,14.82
2022-12-25T21:31:14.841Z,15.17
2022-12-25T21:34:18.177Z,14.38
2022-12-25T21:37:22.260Z,14.68
2022-12-25T21:40:25.548Z,13.27
2022-12-25T21:43:29.270Z,14.85
2022-12-25T21:46:32.669Z,14.33
2022-12-25T21:49:54.561Z,14.07
2022-12-25T21:52:57.735Z,13.82
2022-12-25T21:56:05.803Z,13.65
2022-12-25T21:59:10.077Z,13.07
2022-12-25T22:02:13.392Z,14.20
2022-12-25T22:05:36.648Z,13.73
2022-12-25T22:08:39.835Z,12.80
2022-12-25T22:12:01.970Z,13.15
2022-12-25T22:15:07.801Z,13.50
2022-12-25T22:18:29.553Z,13.03
2022-12-25T22:21:32.711Z,13.98
2022-12-25T22:24:36.307Z,13.00
2022-12-25T22:27:41.333Z,12.27
2022-12-25T22:30:44.700Z,11.75
2022-12-25T22:33:48.059Z,12.13
2022-12-25T22:36:51.416Z,11.90
2022-12-25T22:39:54.746Z,12.35
2022-12-25T22:42:58.051Z,11.90
2022-12-25T22:46:01.549Z,11.60
2022-12-25T22:49:04.752Z,12.77
2022-12-25T22:52:09.846Z,11.27
2022-12-25T22:55:15.990Z,12.43
2022-12-25T22:58:19.252Z,12.50
2022-12-25T23:01:22.415Z,12.07
2022-12-25T23:04:25.652Z,11.47
2022-12-25T23:07:28.773Z,11.55
2022-12-25T23:10:32.126Z,11.95
2022-12-25T23:13:54.024Z,8.88
2022-12-25T23:16:59.170Z,10.43
2022-12-25T23:20:21.289Z,9.87
2022-12-25T23:23:43.346Z,11.13
2022-12-25T23:26:46.521Z,11.13
2022-12-25T23:29:49.989Z,10.65
2022-12-25T23:32:54.151Z,10.88
2022-12-25T23:35:57.434Z,10.87
2022-12-25T23:39:08.669Z,10.68
2022-12-25T23:42:13.261Z,10.93
2022-12-25T23:45:16.531Z,11.02
2022-12-25T23:48:19.709Z,10.88
2022-12-25T23:51:23.554Z,11.53
2022-12-25T23:54:29.442Z,10.50
2022-12-25T23:57:33.223Z,10.73
